createdAt,value
2024-04-21T00:00:36.962Z,2.90
2024-04-21T00:03:07.907Z,2.85
2024-04-21T00:05:35.351Z,2.60
2024-04-21T00:08:05.533Z,3.03
2024-04-21T00:10:32.968Z,3.47
2024-04-21T00:13:05.550Z,2.60
2024-04-21T00:15:33.041Z,2.53
2024-04-21T00:18:03.422Z,2.83
2024-04-21T00:20:31.137Z,3.50
2024-04-21T00:23:01.146Z,4.35
2024-04-21T00:25:28.472Z,2.50
2024-04-21T00:27:58.541Z,2.65
2024-04-21T00:30:28.690Z,2.10
2024-04-21T00:32:58.686Z,2.22
2024-04-21T00:35:26.744Z,2.80
2024-04-21T00:37:57.018Z,2.67
2024-04-21T00:40:24.694Z,2.50
2024-04-21T00:43:02.434Z,2.90
2024-04-21T00:45:37.244Z,2.58
2024-04-21T00:48:09.768Z,2.45
2024-04-21T00:50:37.089Z,2.53
2024-04-21T00:53:08.037Z,2.50
2024-04-21T00:55:35.783Z,2.28
2024-04-21T00:58:06.181Z,2.40
2024-04-21T01:00:36.708Z,2.55
2024-04-21T01:03:07.160Z,2.20
2024-04-21T01:05:34.630Z,2.67
2024-04-21T01:08:04.538Z,2.28
2024-04-21T01:10:32.431Z,2.25
2024-04-21T01:13:02.355Z,2.10
2024-04-21T01:15:29.647Z,2.47
2024-04-21T01:18:02.693Z,2.45
2024-04-21T01:20:30.074Z,2.33
2024-04-21T01:23:02.635Z,2.40
2024-04-21T01:25:30.014Z,2.90
2024-04-21T01:28:00.079Z,3.08
2024-04-21T01:30:27.771Z,2.10
2024-04-21T01:32:57.888Z,2.58
2024-04-21T01:35:25.410Z,2.97
2024-04-21T01:37:55.314Z,2.17
2024-04-21T01:40:25.488Z,1.98
2024-04-21T01:42:55.507Z,2.10
2024-04-21T01:45:24.131Z,2.25
2024-04-21T01:47:54.478Z,2.10
2024-04-21T01:50:21.831Z,3.80
2024-04-21T01:52:51.743Z,2.60
2024-04-21T01:55:19.128Z,2.50
2024-04-21T01:57:55.654Z,1.92
2024-04-21T02:00:23.153Z,2.05
2024-04-21T02:02:53.189Z,2.25
2024-04-21T02:05:20.563Z,2.47
2024-04-21T02:07:51.869Z,1.88
2024-04-21T02:10:19.281Z,2.03
2024-04-21T02:12:49.284Z,2.03
2024-04-21T02:15:19.327Z,2.22
2024-04-21T02:17:49.301Z,1.85
2024-04-21T02:20:16.786Z,1.90
2024-04-21T02:22:46.711Z,2.05
2024-04-21T02:25:14.226Z,1.70
2024-04-21T02:27:44.216Z,1.80
2024-04-21T02:30:11.561Z,1.85
2024-04-21T02:32:44.186Z,1.85
2024-04-21T02:35:11.531Z,1.90
2024-04-21T02:37:41.454Z,1.85
2024-04-21T02:40:09.491Z,2.08
2024-04-21T02:42:39.418Z,2.22
2024-04-21T02:45:07.799Z,1.77
2024-04-21T02:47:37.728Z,2.38
2024-04-21T02:50:08.131Z,1.55
2024-04-21T02:52:38.614Z,1.83
2024-04-21T02:55:06.015Z,1.40
2024-04-21T02:57:35.931Z,1.60
2024-04-21T03:00:03.294Z,1.63
2024-04-21T03:02:33.232Z,1.58
2024-04-21T03:05:01.296Z,1.70
2024-04-21T03:07:34.734Z,2.08
2024-04-21T03:10:02.117Z,1.50
2024-04-21T03:12:32.069Z,9.38
2024-04-21T03:14:59.341Z,2.25
2024-04-21T03:17:29.323Z,4.40
2024-04-21T03:19:56.790Z,1.70
2024-04-21T03:22:26.792Z,7.22
2024-04-21T03:24:56.944Z,2.72
2024-04-21T03:27:27.012Z,2.42
2024-04-21T03:29:54.290Z,1.90
2024-04-21T03:32:24.230Z,1.60
2024-04-21T03:34:53.286Z,2.22
2024-04-21T03:37:23.262Z,2.95
2024-04-21T03:39:53.333Z,5.07
2024-04-21T03:42:23.315Z,2.03
2024-04-21T03:44:53.243Z,1.70
2024-04-21T03:47:20.562Z,2.38
2024-04-21T03:49:50.484Z,2.30
2024-04-21T03:52:17.806Z,2.40
2024-04-21T03:54:47.822Z,1.60
2024-04-21T03:57:15.154Z,1.90
2024-04-21T03:59:47.743Z,3.30
2024-04-21T04:02:15.059Z,2.38
2024-04-21T04:04:45.188Z,6.53
2024-04-21T04:07:12.564Z,5.47
2024-04-21T04:09:42.561Z,2.55
2024-04-21T04:12:09.869Z,1.90
2024-04-21T04:14:39.905Z,2.05
2024-04-21T04:17:10.150Z,3.30
2024-04-21T04:19:40.824Z,1.77
2024-04-21T04:22:08.695Z,2.05
2024-04-21T04:24:38.624Z,1.67
2024-04-21T04:27:06.160Z,2.13
2024-04-21T04:29:36.095Z,2.42
2024-04-21T04:32:03.444Z,1.67
2024-04-21T04:34:36.503Z,1.63
2024-04-21T04:37:03.876Z,2.42
2024-04-21T04:39:34.464Z,9.30
2024-04-21T04:42:01.772Z,2.20
2024-04-21T04:44:31.900Z,3.40
2024-04-21T04:46:59.318Z,1.90
2024-04-21T04:49:29.628Z,2.22
2024-04-21T04:51:59.812Z,3.35
2024-04-21T04:54:29.738Z,2.17
2024-04-21T04:56:57.017Z,1.67
2024-04-21T04:59:27.183Z,2.13
2024-04-21T05:01:54.704Z,4.68
2024-04-21T05:04:25.551Z,1.83
2024-04-21T05:06:52.992Z,2.05
2024-04-21T05:09:25.862Z,3.58
2024-04-21T05:11:53.510Z,2.28
2024-04-21T05:14:23.873Z,11.38
2024-04-21T05:16:51.199Z,5.65
2024-04-21T05:19:21.523Z,8.80
2024-04-21T05:21:49.294Z,6.50
2024-04-21T05:24:20.049Z,5.80
2024-04-21T05:26:50.193Z,7.13
2024-04-21T05:29:20.126Z,7.55
2024-04-21T05:31:47.419Z,8.52
2024-04-21T05:34:18.095Z,7.18
2024-04-21T05:36:45.555Z,10.25
2024-04-21T05:39:15.499Z,12.65
2024-04-21T05:41:42.834Z,12.77
2024-04-21T05:44:15.374Z,12.38
2024-04-21T05:46:42.694Z,17.63
2024-04-21T05:49:12.662Z,15.10
2024-04-21T05:51:40.141Z,9.93
2024-04-21T05:54:10.046Z,12.30
2024-04-21T05:56:37.377Z,10.73
2024-04-21T05:59:07.279Z,16.17
2024-04-21T06:01:37.362Z,10.43
2024-04-21T06:04:07.712Z,11.75
2024-04-21T06:06:35.056Z,12.73
2024-04-21T06:09:04.958Z,17.10
2024-04-21T06:11:32.261Z,12.52
2024-04-21T06:14:08.933Z,15.27
2024-04-21T06:16:38.843Z,12.85
2024-04-21T06:19:08.867Z,10.15
2024-04-21T06:21:36.217Z,10.25
2024-04-21T06:24:06.195Z,13.85
2024-04-21T06:26:33.455Z,11.32
2024-04-21T06:29:03.362Z,6.70
2024-04-21T06:31:30.732Z,13.05
2024-04-21T06:34:03.347Z,17.60
2024-04-21T06:36:30.688Z,12.95
2024-04-21T06:39:00.588Z,13.30
2024-04-21T06:41:27.838Z,15.43
2024-04-21T06:43:57.858Z,12.68
2024-04-21T06:46:25.266Z,13.68
2024-04-21T06:48:55.479Z,10.90
2024-04-21T06:51:25.585Z,11.55
2024-04-21T06:53:55.670Z,8.35
2024-04-21T06:56:22.960Z,10.77
2024-04-21T06:58:52.872Z,9.45
2024-04-21T07:01:20.334Z,9.73
2024-04-21T07:03:50.577Z,11.98
2024-04-21T07:06:17.957Z,7.97
2024-04-21T07:08:50.617Z,6.93
2024-04-21T07:11:17.957Z,7.40
2024-04-21T07:13:51.453Z,9.20
2024-04-21T07:16:21.143Z,8.55
2024-04-21T07:18:54.736Z,7.75
2024-04-21T07:21:22.362Z,13.35
2024-04-21T07:23:55.115Z,20.38
2024-04-21T07:26:22.374Z,37.35
2024-04-21T07:28:52.418Z,24.23
2024-04-21T07:31:19.880Z,27.90
2024-04-21T07:33:49.983Z,25.08
2024-04-21T07:36:17.700Z,23.48
2024-04-21T07:38:47.737Z,23.60
2024-04-21T07:41:18.010Z,21.15
2024-04-21T07:43:48.152Z,20.10
2024-04-21T07:46:15.505Z,20.90
2024-04-21T07:48:45.747Z,17.52
2024-04-21T07:51:15.567Z,18.63
2024-04-21T07:53:47.036Z,17.75
2024-04-21T07:56:17.183Z,16.00
2024-04-21T07:58:47.090Z,16.95
2024-04-21T08:01:14.496Z,15.77
2024-04-21T08:03:44.648Z,14.13
2024-04-21T08:06:12.422Z,15.98
2024-04-21T08:08:42.430Z,19.45
2024-04-21T08:11:09.932Z,15.50
2024-04-21T08:13:42.700Z,16.30
2024-04-21T08:16:10.230Z,13.10
2024-04-21T08:18:41.022Z,13.30
2024-04-21T08:21:08.780Z,11.25
2024-04-21T08:23:39.000Z,10.68
2024-04-21T08:26:06.423Z,14.00
2024-04-21T08:28:36.528Z,12.63
2024-04-21T08:31:07.214Z,12.52
2024-04-21T08:33:37.284Z,13.98
2024-04-21T08:36:05.193Z,11.60
2024-04-21T08:38:35.198Z,12.40
2024-04-21T08:41:08.688Z,8.73
2024-04-21T08:43:38.628Z,10.95
2024-04-21T08:46:09.043Z,11.80
2024-04-21T08:48:39.506Z,8.95
2024-04-21T08:51:06.950Z,10.48
2024-04-21T08:53:37.195Z,10.05
2024-04-21T08:56:06.834Z,9.98
2024-04-21T08:58:37.225Z,8.20
2024-04-21T09:01:07.946Z,8.07
2024-04-21T09:03:38.062Z,7.57
2024-04-21T09:06:05.718Z,8.73
2024-04-21T09:08:36.084Z,9.60
2024-04-21T09:11:04.254Z,9.38
2024-04-21T09:13:34.425Z,7.68
2024-04-21T09:16:01.910Z,8.05
2024-04-21T09:18:34.603Z,7.90
2024-04-21T09:21:01.935Z,8.10
2024-04-21T09:23:32.314Z,7.72
2024-04-21T09:25:59.716Z,17.85
2024-04-21T09:28:30.148Z,9.15
2024-04-21T09:30:57.626Z,8.35
2024-04-21T09:33:28.103Z,8.27
2024-04-21T09:36:00.524Z,8.50
2024-04-21T09:38:30.938Z,9.15
2024-04-21T09:40:58.498Z,10.23
2024-04-21T09:43:28.610Z,11.77
2024-04-21T09:45:56.521Z,10.30
2024-04-21T09:48:26.436Z,13.18
2024-04-21T09:50:53.747Z,8.32
2024-04-21T09:53:26.265Z,9.45
2024-04-21T09:55:54.983Z,8.00
2024-04-21T09:58:25.757Z,7.53
2024-04-21T10:00:53.984Z,8.50
2024-04-21T10:03:23.975Z,8.88
2024-04-21T10:05:52.467Z,7.63
2024-04-21T10:08:23.427Z,9.10
2024-04-21T10:10:54.922Z,9.30
2024-04-21T10:13:24.972Z,8.02
2024-04-21T10:15:52.547Z,8.07
2024-04-21T10:18:25.478Z,8.18
2024-04-21T10:20:53.361Z,9.07
2024-04-21T10:23:23.249Z,8.82
2024-04-21T10:25:55.121Z,9.30
2024-04-21T10:28:29.484Z,7.90
2024-04-21T10:31:04.813Z,7.80
2024-04-21T10:33:34.833Z,6.82
2024-04-21T10:36:02.143Z,8.05
2024-04-21T10:38:32.319Z,6.90
2024-04-21T10:41:02.438Z,8.90
2024-04-21T10:43:32.521Z,8.40
2024-04-21T10:46:00.273Z,7.43
2024-04-21T10:48:30.455Z,7.30
2024-04-21T10:50:58.005Z,7.45
2024-04-21T10:53:28.204Z,7.50
2024-04-21T10:55:55.837Z,7.18
2024-04-21T10:58:28.652Z,7.07
2024-04-21T11:00:56.051Z,7.05
2024-04-21T11:03:26.157Z,6.63
2024-04-21T11:05:56.590Z,6.75
2024-04-21T11:08:26.664Z,6.75
2024-04-21T11:10:54.303Z,6.47
2024-04-21T11:13:24.355Z,7.93
2024-04-21T11:15:54.582Z,7.40
2024-04-21T11:18:24.600Z,6.72
2024-04-21T11:20:51.943Z,6.22
2024-04-21T11:23:21.866Z,7.90
2024-04-21T11:25:51.841Z,5.45
2024-04-21T11:28:24.154Z,6.63
2024-04-21T11:31:05.006Z,7.10
2024-04-21T11:33:35.595Z,5.70
2024-04-21T11:36:03.266Z,6.38
2024-04-21T11:38:33.318Z,5.70
2024-04-21T11:41:00.588Z,6.10
2024-04-21T11:43:31.375Z,5.72
2024-04-21T11:46:04.484Z,5.78
2024-04-21T11:48:35.187Z,5.07
2024-04-21T11:51:02.865Z,5.57
2024-04-21T11:53:32.769Z,5.50
2024-04-21T11:56:00.023Z,6.18
2024-04-21T11:58:33.399Z,5.22
2024-04-21T12:01:03.668Z,5.60
2024-04-21T12:03:33.729Z,5.05
2024-04-21T12:06:01.069Z,5.00
2024-04-21T12:08:31.053Z,4.47
2024-04-21T12:10:58.644Z,5.43
2024-04-21T12:13:28.793Z,4.70
2024-04-21T12:15:56.131Z,5.57
2024-04-21T12:18:28.753Z,5.35
2024-04-21T12:20:56.073Z,4.82
2024-04-21T12:23:26.026Z,4.85
2024-04-21T12:25:53.642Z,5.47
2024-04-21T12:28:23.742Z,5.45
2024-04-21T12:30:51.049Z,4.38
2024-04-21T12:33:21.006Z,4.07
2024-04-21T12:35:50.960Z,4.25
2024-04-21T12:38:20.880Z,4.60
2024-04-21T12:40:48.150Z,4.50
2024-04-21T12:43:18.163Z,3.90
2024-04-21T12:45:46.562Z,4.57
2024-04-21T12:48:17.653Z,5.55
2024-04-21T12:50:47.388Z,4.72
2024-04-21T12:53:20.066Z,3.92
2024-04-21T12:55:47.383Z,3.80
2024-04-21T12:58:17.388Z,4.38
2024-04-21T13:00:44.747Z,3.50
2024-04-21T13:03:17.608Z,4.05
2024-04-21T13:05:45.282Z,3.70
2024-04-21T13:08:15.198Z,3.67
2024-04-21T13:10:45.191Z,4.53
2024-04-21T13:13:15.224Z,4.80
2024-04-21T13:15:42.591Z,4.22
2024-04-21T13:18:12.637Z,4.07
2024-04-21T13:20:39.964Z,4.28
2024-04-21T13:23:10.126Z,3.55
2024-04-21T13:25:37.453Z,3.40
2024-04-21T13:28:10.165Z,4.03
2024-04-21T13:30:37.675Z,3.28
2024-04-21T13:33:08.356Z,3.70
2024-04-21T13:35:35.716Z,3.63
2024-04-21T13:38:05.982Z,3.63
2024-04-21T13:40:33.663Z,3.22
2024-04-21T13:43:04.022Z,3.85
2024-04-21T13:45:34.034Z,3.40
2024-04-21T13:48:04.464Z,3.17
2024-04-21T13:50:31.883Z,3.50
2024-04-21T13:53:02.293Z,3.13
2024-04-21T13:55:29.594Z,3.33
2024-04-21T13:57:59.567Z,3.65
2024-04-21T14:00:26.915Z,3.10
2024-04-21T14:02:59.614Z,3.28
2024-04-21T14:05:26.934Z,3.53
2024-04-21T14:07:56.822Z,2.75
2024-04-21T14:10:24.390Z,2.92
2024-04-21T14:12:54.354Z,2.70
2024-04-21T14:15:22.042Z,2.92
2024-04-21T14:17:52.114Z,3.10
2024-04-21T14:20:22.158Z,3.03
2024-04-21T14:22:52.609Z,2.72
2024-04-21T14:25:20.035Z,3.25
2024-04-21T14:27:51.105Z,3.00
2024-04-21T14:30:18.424Z,3.17
2024-04-21T14:32:48.523Z,2.95
2024-04-21T14:35:16.184Z,2.67
2024-04-21T14:37:49.061Z,2.70
2024-04-21T14:40:16.757Z,2.70
2024-04-21T14:42:46.678Z,2.58
2024-04-21T14:45:13.989Z,2.60
2024-04-21T14:47:45.965Z,2.85
2024-04-21T14:50:13.454Z,2.38
2024-04-21T14:52:48.478Z,3.00
2024-04-21T14:55:16.131Z,2.53
2024-04-21T14:57:48.409Z,2.63
2024-04-21T15:00:16.269Z,2.40
2024-04-21T15:02:46.258Z,2.58
2024-04-21T15:05:14.580Z,2.40
2024-04-21T15:07:44.505Z,2.55
2024-04-21T15:10:14.571Z,2.55
2024-04-21T15:12:44.549Z,2.40
2024-04-21T15:15:11.874Z,2.17
2024-04-21T15:17:41.985Z,2.58
2024-04-21T15:20:10.377Z,2.50
2024-04-21T15:22:40.808Z,2.83
2024-04-21T15:25:08.568Z,2.20
2024-04-21T15:27:45.302Z,2.20
2024-04-21T15:30:12.801Z,1.95
2024-04-21T15:32:43.875Z,2.20
2024-04-21T15:35:11.261Z,2.40
2024-04-21T15:37:43.235Z,3.58
2024-04-21T15:40:11.936Z,2.28
2024-04-21T15:42:44.706Z,2.10
2024-04-21T15:45:12.181Z,2.30
2024-04-21T15:47:45.600Z,2.20
2024-04-21T15:50:14.861Z,2.25
2024-04-21T15:52:44.958Z,2.05
2024-04-21T15:55:15.584Z,2.17
2024-04-21T15:57:48.305Z,1.92
2024-04-21T16:00:17.835Z,2.00
2024-04-21T16:02:47.788Z,2.30
2024-04-21T16:05:15.123Z,2.40
2024-04-21T16:07:45.022Z,2.20
2024-04-21T16:10:12.320Z,2.38
2024-04-21T16:12:44.475Z,2.10
2024-04-21T16:15:17.239Z,1.80
2024-04-21T16:17:49.724Z,1.88
2024-04-21T16:20:17.460Z,2.00
2024-04-21T16:22:47.609Z,1.85
2024-04-21T16:25:15.165Z,2.00
2024-04-21T16:27:46.822Z,1.80
2024-04-21T16:30:17.666Z,1.65
2024-04-21T16:32:47.816Z,2.35
2024-04-21T16:35:16.054Z,1.70
2024-04-21T16:37:46.562Z,2.03
2024-04-21T16:40:14.545Z,1.60
2024-04-21T16:42:45.098Z,1.80
2024-04-21T16:45:13.536Z,2.25
2024-04-21T16:47:50.882Z,1.88
2024-04-21T16:50:18.887Z,1.70
2024-04-21T16:52:49.488Z,1.60
2024-04-21T16:55:17.976Z,1.67
2024-04-21T16:57:56.289Z,1.55
2024-04-21T17:00:24.668Z,1.73
2024-04-21T17:02:57.981Z,1.83
2024-04-21T17:05:25.978Z,1.40
2024-04-21T17:08:00.226Z,1.63
2024-04-21T17:10:28.604Z,1.42
2024-04-21T17:12:59.605Z,1.58
2024-04-21T17:15:26.938Z,1.67
2024-04-21T17:18:00.134Z,1.67
2024-04-21T17:20:27.566Z,1.50
2024-04-21T17:22:57.845Z,1.70
2024-04-21T17:25:25.150Z,1.65
2024-04-21T17:27:55.100Z,1.45
2024-04-21T17:30:23.233Z,1.60
2024-04-21T17:32:53.276Z,1.80
2024-04-21T17:35:23.474Z,1.67
2024-04-21T17:37:53.421Z,1.67
2024-04-21T17:40:20.803Z,1.70
2024-04-21T17:42:55.100Z,2.15
2024-04-21T17:45:25.306Z,1.60
2024-04-21T17:47:55.238Z,1.63
2024-04-21T17:50:25.394Z,1.50
2024-04-21T17:52:55.294Z,1.33
2024-04-21T17:55:22.636Z,1.63
2024-04-21T17:57:52.531Z,1.50
2024-04-21T18:00:20.705Z,1.35
2024-04-21T18:02:50.884Z,1.55
2024-04-21T18:05:18.348Z,1.35
2024-04-21T18:07:55.735Z,2.40
2024-04-21T18:10:23.313Z,1.50
2024-04-21T18:12:53.276Z,1.40
2024-04-21T18:15:20.611Z,1.45
2024-04-21T18:17:51.428Z,1.20
2024-04-21T18:20:18.789Z,1.30
2024-04-21T18:22:51.434Z,1.40
2024-04-21T18:25:19.987Z,1.60
2024-04-21T18:27:49.912Z,1.50
2024-04-21T18:30:19.906Z,1.60
2024-04-21T18:32:47.230Z,1.42
2024-04-21T18:35:17.393Z,1.30
2024-04-21T18:37:44.662Z,1.27
2024-04-21T18:40:17.467Z,1.30
2024-04-21T18:42:47.135Z,1.48
2024-04-21T18:45:17.138Z,1.30
2024-04-21T18:47:44.450Z,1.40
2024-04-21T18:50:14.837Z,1.45
2024-04-21T18:52:42.362Z,1.42
2024-04-21T18:55:12.309Z,1.33
2024-04-21T18:57:42.472Z,1.15
2024-04-21T19:00:13.329Z,1.48
2024-04-21T19:02:40.832Z,1.30
2024-04-21T19:05:10.834Z,1.40
2024-04-21T19:07:38.177Z,1.00
2024-04-21T19:10:09.383Z,1.27
2024-04-21T19:12:37.203Z,1.20
2024-04-21T19:15:11.393Z,1.50
2024-04-21T19:17:39.212Z,1.40
2024-04-21T19:20:10.764Z,1.60
2024-04-21T19:22:38.636Z,1.25
2024-04-21T19:25:09.856Z,2.45
2024-04-21T19:27:37.273Z,1.30
2024-04-21T19:30:11.328Z,1.50
2024-04-21T19:32:38.985Z,1.20
2024-04-21T19:35:10.481Z,1.40
2024-04-21T19:37:37.764Z,1.30
2024-04-21T19:40:08.748Z,1.30
2024-04-21T19:42:36.431Z,1.20
2024-04-21T19:45:09.459Z,1.60
2024-04-21T19:47:36.795Z,1.52
2024-04-21T19:50:07.276Z,1.17
2024-04-21T19:52:39.271Z,1.33
2024-04-21T19:55:07.555Z,3.15
2024-04-21T19:57:39.707Z,3.13
2024-04-21T20:00:12.531Z,3.95
2024-04-21T20:02:42.740Z,5.70
2024-04-21T20:05:10.130Z,5.35
2024-04-21T20:07:40.237Z,5.78
2024-04-21T20:10:10.999Z,4.70
2024-04-21T20:12:38.380Z,4.80
2024-04-21T20:15:25.241Z,4.93
2024-04-21T20:18:14.493Z,7.45
2024-04-21T20:20:44.761Z,6.22
2024-04-21T20:23:14.790Z,7.82
2024-04-21T20:25:44.751Z,6.55
2024-04-21T20:28:12.673Z,6.35
2024-04-21T20:30:42.575Z,7.80
2024-04-21T20:33:12.567Z,8.23
2024-04-21T20:35:42.519Z,9.40
2024-04-21T20:38:09.859Z,7.90
2024-04-21T20:40:39.848Z,6.28
2024-04-21T20:43:07.676Z,6.90
2024-04-21T20:45:37.573Z,5.43
2024-04-21T20:48:05.649Z,4.90
2024-04-21T20:50:38.315Z,6.25
2024-04-21T20:53:06.126Z,6.93
2024-04-21T20:55:36.113Z,7.25
2024-04-21T20:58:03.609Z,5.65
2024-04-21T21:00:37.700Z,5.30
2024-04-21T21:03:05.593Z,5.60
2024-04-21T21:05:38.179Z,6.38
2024-04-21T21:08:07.001Z,6.38
2024-04-21T21:10:36.943Z,4.43
2024-04-21T21:13:04.977Z,5.05
2024-04-21T21:15:36.579Z,5.55
2024-04-21T21:18:04.190Z,5.05
2024-04-21T21:20:34.138Z,5.60
2024-04-21T21:23:04.273Z,5.18
2024-04-21T21:25:34.787Z,5.00
2024-04-21T21:28:02.167Z,5.57
2024-04-21T21:30:32.115Z,6.60
2024-04-21T21:32:59.436Z,5.00
2024-04-21T21:35:29.414Z,5.60
2024-04-21T21:37:56.715Z,5.15
2024-04-21T21:40:29.320Z,4.30
2024-04-21T21:42:56.923Z,4.68
2024-04-21T21:45:26.895Z,5.20
2024-04-21T21:47:54.286Z,4.07
2024-04-21T21:50:24.645Z,4.03
2024-04-21T21:52:51.933Z,3.72
2024-04-21T21:55:21.873Z,4.80
2024-04-21T21:57:51.936Z,4.88
2024-04-21T22:00:24.133Z,3.72
2024-04-21T22:02:53.649Z,4.40
2024-04-21T22:05:23.560Z,3.67
2024-04-21T22:07:51.048Z,5.05
2024-04-21T22:10:21.979Z,4.63
2024-04-21T22:12:52.603Z,6.25
2024-04-21T22:15:23.115Z,5.00
2024-04-21T22:17:50.542Z,5.13
2024-04-21T22:20:21.926Z,4.18
2024-04-21T22:22:52.557Z,3.72
2024-04-21T22:25:22.968Z,3.65
2024-04-21T22:27:53.527Z,3.65
2024-04-21T22:30:23.420Z,3.95
2024-04-21T22:32:51.023Z,4.05
2024-04-21T22:35:21.146Z,3.78
2024-04-21T22:37:48.686Z,4.18
2024-04-21T22:40:18.846Z,3.70
2024-04-21T22:42:47.911Z,4.97
2024-04-21T22:45:20.608Z,3.50
2024-04-21T22:47:47.999Z,3.15
2024-04-21T22:50:18.072Z,4.68
2024-04-21T22:52:45.422Z,3.05
2024-04-21T22:55:15.523Z,3.20
2024-04-21T22:57:42.921Z,3.25
2024-04-21T23:00:14.030Z,3.05
2024-04-21T23:02:44.003Z,3.65
2024-04-21T23:05:14.266Z,2.97
2024-04-21T23:07:41.603Z,3.83
2024-04-21T23:10:11.829Z,3.03
2024-04-21T23:12:39.481Z,3.05
2024-04-21T23:15:10.376Z,3.22
2024-04-21T23:17:37.747Z,3.22
2024-04-21T23:20:11.226Z,5.68
2024-04-21T23:22:38.742Z,3.15
2024-04-21T23:25:09.466Z,2.55
2024-04-21T23:27:36.930Z,3.20
2024-04-21T23:30:07.667Z,3.10
2024-04-21T23:32:35.087Z,2.97
2024-04-21T23:35:05.052Z,2.90
2024-04-21T23:37:35.487Z,2.72
2024-04-21T23:40:06.202Z,2.88
2024-04-21T23:42:33.613Z,4.05
2024-04-21T23:45:04.214Z,2.80
2024-04-21T23:47:31.612Z,3.00
2024-04-21T23:50:01.545Z,4.13
2024-04-21T23:52:28.891Z,2.90
2024-04-21T23:55:01.447Z,2.67
2024-04-21T23:57:28.770Z,2.33
2024-04-21T23:59:58.687Z,3.58
